sensor_id;sensor_type;location;lat;lon;timestamp;P1;durP1;ratioP1;P2;durP2;ratioP2
59302;SDS011;45074;52.764;6.896;2023-06-22T00:00:56;25.80;;;21.02;;
59302;SDS011;45074;52.764;6.896;2023-06-22T00:03:22;25.05;;;21.05;;
59302;SDS011;45074;52.764;6.896;2023-06-22T00:05:49;24.80;;;20.73;;
59302;SDS011;45074;52.764;6.896;2023-06-22T00:08:16;25.02;;;20.92;;
59302;SDS011;45074;52.764;6.896;2023-06-22T00:10:42;25.63;;;21.13;;
59302;SDS011;45074;52.764;6.896;2023-06-22T00:13:08;25.00;;;21.23;;
59302;SDS011;45074;52.764;6.896;2023-06-22T00:15:35;28.38;;;21.60;;
59302;SDS011;45074;52.764;6.896;2023-06-22T00:18:01;29.08;;;22.63;;
59302;SDS011;45074;52.764;6.896;2023-06-22T00:20:27;29.08;;;22.67;;
59302;SDS011;45074;52.764;6.896;2023-06-22T00:22:54;24.88;;;21.05;;
59302;SDS011;45074;52.764;6.896;2023-06-22T00:25:20;25.83;;;22.30;;
59302;SDS011;45074;52.764;6.896;2023-06-22T00:27:46;27.05;;;20.55;;
59302;SDS011;45074;52.764;6.896;2023-06-22T00:30:12;27.40;;;22.05;;
59302;SDS011;45074;52.764;6.896;2023-06-22T00:32:38;27.35;;;21.75;;
59302;SDS011;45074;52.764;6.896;2023-06-22T00:35:03;26.85;;;21.40;;
59302;SDS011;45074;52.764;6.896;2023-06-22T00:37:30;26.95;;;21.90;;
59302;SDS011;45074;52.764;6.896;2023-06-22T00:39:55;27.80;;;23.75;;
59302;SDS011;45074;52.764;6.896;2023-06-22T00:42:21;28.67;;;23.23;;
59302;SDS011;45074;52.764;6.896;2023-06-22T00:44:47;31.45;;;23.98;;
59302;SDS011;45074;52.764;6.896;2023-06-22T00:47:13;26.33;;;22.52;;
59302;SDS011;45074;52.764;6.896;2023-06-22T00:49:42;27.85;;;22.80;;
59302;SDS011;45074;52.764;6.896;2023-06-22T00:52:08;27.77;;;23.92;;
59302;SDS011;45074;52.764;6.896;2023-06-22T00:57:10;34.38;;;25.67;;
59302;SDS011;45074;52.764;6.896;2023-06-22T00:59:47;29.58;;;24.63;;
59302;SDS011;45074;52.764;6.896;2023-06-22T01:02:13;28.70;;;24.02;;
59302;SDS011;45074;52.764;6.896;2023-06-22T01:04:39;31.85;;;27.67;;
59302;SDS011;45074;52.764;6.896;2023-06-22T01:10:14;31.13;;;26.70;;
59302;SDS011;45074;52.764;6.896;2023-06-22T01:12:48;34.42;;;29.00;;
59302;SDS011;45074;52.764;6.896;2023-06-22T01:15:31;33.00;;;28.30;;
59302;SDS011;45074;52.764;6.896;2023-06-22T01:18:02;33.78;;;28.35;;
59302;SDS011;45074;52.764;6.896;2023-06-22T01:20:30;32.78;;;28.23;;
59302;SDS011;45074;52.764;6.896;2023-06-22T01:26:05;37.33;;;30.20;;
59302;SDS011;45074;52.764;6.896;2023-06-22T01:28:40;34.88;;;29.80;;
59302;SDS011;45074;52.764;6.896;2023-06-22T01:31:18;32.28;;;28.85;;
59302;SDS011;45074;52.764;6.896;2023-06-22T01:33:55;33.33;;;29.20;;
59302;SDS011;45074;52.764;6.896;2023-06-22T01:36:24;34.80;;;28.58;;
59302;SDS011;45074;52.764;6.896;2023-06-22T01:38:50;33.15;;;27.25;;
59302;SDS011;45074;52.764;6.896;2023-06-22T01:41:19;36.08;;;32.17;;
59302;SDS011;45074;52.764;6.896;2023-06-22T01:43:45;35.15;;;30.63;;
59302;SDS011;45074;52.764;6.896;2023-06-22T01:46:11;36.10;;;31.27;;
59302;SDS011;45074;52.764;6.896;2023-06-22T01:48:40;37.17;;;32.17;;
59302;SDS011;45074;52.764;6.896;2023-06-22T01:51:07;38.15;;;33.60;;
59302;SDS011;45074;52.764;6.896;2023-06-22T01:53:33;37.92;;;33.55;;
59302;SDS011;45074;52.764;6.896;2023-06-22T01:55:59;39.95;;;34.35;;
59302;SDS011;45074;52.764;6.896;2023-06-22T01:58:26;38.38;;;33.20;;
59302;SDS011;45074;52.764;6.896;2023-06-22T02:01:14;38.95;;;33.28;;
59302;SDS011;45074;52.764;6.896;2023-06-22T02:03:41;38.53;;;33.33;;
59302;SDS011;45074;52.764;6.896;2023-06-22T02:06:30;41.03;;;33.33;;
59302;SDS011;45074;52.764;6.896;2023-06-22T02:09:01;39.90;;;34.08;;
59302;SDS011;45074;52.764;6.896;2023-06-22T02:11:34;38.53;;;33.65;;
59302;SDS011;45074;52.764;6.896;2023-06-22T02:14:02;37.15;;;32.17;;
59302;SDS011;45074;52.764;6.896;2023-06-22T02:16:28;37.58;;;33.28;;
59302;SDS011;45074;52.764;6.896;2023-06-22T02:18:57;39.92;;;34.15;;
59302;SDS011;45074;52.764;6.896;2023-06-22T02:21:28;38.45;;;33.97;;
59302;SDS011;45074;52.764;6.896;2023-06-22T02:23:54;39.45;;;33.90;;
59302;SDS011;45074;52.764;6.896;2023-06-22T02:26:20;40.05;;;34.28;;
59302;SDS011;45074;52.764;6.896;2023-06-22T02:28:46;38.38;;;33.33;;
59302;SDS011;45074;52.764;6.896;2023-06-22T02:31:12;38.40;;;33.55;;
59302;SDS011;45074;52.764;6.896;2023-06-22T02:33:38;40.08;;;34.15;;
59302;SDS011;45074;52.764;6.896;2023-06-22T02:36:04;42.42;;;34.95;;
59302;SDS011;45074;52.764;6.896;2023-06-22T02:38:34;40.17;;;35.05;;
59302;SDS011;45074;52.764;6.896;2023-06-22T02:41:01;39.17;;;33.95;;
59302;SDS011;45074;52.764;6.896;2023-06-22T02:43:27;39.35;;;33.05;;
59302;SDS011;45074;52.764;6.896;2023-06-22T02:45:53;39.83;;;33.60;;
59302;SDS011;45074;52.764;6.896;2023-06-22T02:48:20;39.78;;;35.28;;
59302;SDS011;45074;52.764;6.896;2023-06-22T02:50:46;38.42;;;34.08;;
59302;SDS011;45074;52.764;6.896;2023-06-22T02:53:12;39.53;;;34.08;;
59302;SDS011;45074;52.764;6.896;2023-06-22T02:55:38;40.58;;;35.22;;
59302;SDS011;45074;52.764;6.896;2023-06-22T02:58:04;42.38;;;35.47;;
59302;SDS011;45074;52.764;6.896;2023-06-22T03:00:30;41.30;;;35.72;;
59302;SDS011;45074;52.764;6.896;2023-06-22T03:02:56;40.58;;;35.67;;
59302;SDS011;45074;52.764;6.896;2023-06-22T03:05:22;43.75;;;35.42;;
59302;SDS011;45074;52.764;6.896;2023-06-22T03:07:49;42.20;;;35.33;;
59302;SDS011;45074;52.764;6.896;2023-06-22T03:10:15;41.38;;;35.20;;
59302;SDS011;45074;52.764;6.896;2023-06-22T03:12:41;41.35;;;35.30;;
59302;SDS011;45074;52.764;6.896;2023-06-22T03:15:08;42.33;;;36.42;;
59302;SDS011;45074;52.764;6.896;2023-06-22T03:17:35;38.70;;;33.47;;
59302;SDS011;45074;52.764;6.896;2023-06-22T03:20:02;39.10;;;34.30;;
59302;SDS011;45074;52.764;6.896;2023-06-22T03:22:34;39.75;;;33.90;;
59302;SDS011;45074;52.764;6.896;2023-06-22T03:25:01;42.45;;;36.38;;
59302;SDS011;45074;52.764;6.896;2023-06-22T03:27:27;44.17;;;36.60;;
59302;SDS011;45074;52.764;6.896;2023-06-22T03:29:53;42.45;;;35.38;;
59302;SDS011;45074;52.764;6.896;2023-06-22T03:32:19;40.15;;;33.67;;
59302;SDS011;45074;52.764;6.896;2023-06-22T03:34:46;40.88;;;34.33;;
59302;SDS011;45074;52.764;6.896;2023-06-22T03:37:13;46.45;;;38.95;;
59302;SDS011;45074;52.764;6.896;2023-06-22T03:39:40;44.58;;;37.65;;
59302;SDS011;45074;52.764;6.896;2023-06-22T03:42:06;43.00;;;37.58;;
59302;SDS011;45074;52.764;6.896;2023-06-22T03:44:32;45.65;;;38.75;;
59302;SDS011;45074;52.764;6.896;2023-06-22T03:46:58;47.95;;;39.38;;
59302;SDS011;45074;52.764;6.896;2023-06-22T03:49:24;47.20;;;39.15;;
59302;SDS011;45074;52.764;6.896;2023-06-22T03:51:50;44.97;;;38.78;;
59302;SDS011;45074;52.764;6.896;2023-06-22T03:54:16;46.10;;;39.45;;
59302;SDS011;45074;52.764;6.896;2023-06-22T03:56:42;47.78;;;40.10;;
59302;SDS011;45074;52.764;6.896;2023-06-22T03:59:08;48.05;;;41.05;;
59302;SDS011;45074;52.764;6.896;2023-06-22T04:01:34;46.33;;;40.40;;
59302;SDS011;45074;52.764;6.896;2023-06-22T04:04:01;48.63;;;39.67;;
59302;SDS011;45074;52.764;6.896;2023-06-22T04:06:27;48.75;;;39.97;;
59302;SDS011;45074;52.764;6.896;2023-06-22T04:08:53;47.58;;;40.60;;
59302;SDS011;45074;52.764;6.896;2023-06-22T04:11:19;47.03;;;39.72;;
59302;SDS011;45074;52.764;6.896;2023-06-22T04:13:45;48.05;;;40.08;;
59302;SDS011;45074;52.764;6.896;2023-06-22T04:16:13;50.35;;;41.13;;
59302;SDS011;45074;52.764;6.896;2023-06-22T04:18:39;47.15;;;40.45;;
59302;SDS011;45074;52.764;6.896;2023-06-22T04:21:06;48.00;;;40.13;;
59302;SDS011;45074;52.764;6.896;2023-06-22T04:23:32;46.50;;;39.28;;
59302;SDS011;45074;52.764;6.896;2023-06-22T04:25:58;44.78;;;38.60;;
59302;SDS011;45074;52.764;6.896;2023-06-22T04:28:24;44.83;;;37.63;;
59302;SDS011;45074;52.764;6.896;2023-06-22T04:30:50;44.47;;;38.13;;
59302;SDS011;45074;52.764;6.896;2023-06-22T04:33:16;43.40;;;37.05;;
59302;SDS011;45074;52.764;6.896;2023-06-22T04:35:45;46.45;;;39.25;;
59302;SDS011;45074;52.764;6.896;2023-06-22T04:38:14;46.13;;;37.45;;
59302;SDS011;45074;52.764;6.896;2023-06-22T04:40:40;44.85;;;38.58;;
59302;SDS011;45074;52.764;6.896;2023-06-22T04:43:05;46.63;;;39.50;;
59302;SDS011;45074;52.764;6.896;2023-06-22T04:45:32;48.80;;;39.20;;
59302;SDS011;45074;52.764;6.896;2023-06-22T04:47:58;45.95;;;38.97;;
59302;SDS011;45074;52.764;6.896;2023-06-22T04:50:24;44.78;;;39.63;;
59302;SDS011;45074;52.764;6.896;2023-06-22T04:52:51;45.60;;;39.25;;
59302;SDS011;45074;52.764;6.896;2023-06-22T04:55:17;44.78;;;38.35;;
59302;SDS011;45074;52.764;6.896;2023-06-22T04:57:48;47.75;;;40.03;;
59302;SDS011;45074;52.764;6.896;2023-06-22T05:00:22;41.58;;;36.63;;
59302;SDS011;45074;52.764;6.896;2023-06-22T05:02:48;41.88;;;37.35;;
59302;SDS011;45074;52.764;6.896;2023-06-22T05:05:15;35.63;;;31.80;;
59302;SDS011;45074;52.764;6.896;2023-06-22T05:07:44;38.38;;;32.92;;
59302;SDS011;45074;52.764;6.896;2023-06-22T05:10:13;40.33;;;33.83;;
59302;SDS011;45074;52.764;6.896;2023-06-22T05:12:39;41.78;;;34.83;;
59302;SDS011;45074;52.764;6.896;2023-06-22T05:15:09;43.08;;;35.28;;
59302;SDS011;45074;52.764;6.896;2023-06-22T05:17:35;38.88;;;34.03;;
59302;SDS011;45074;52.764;6.896;2023-06-22T05:20:02;42.30;;;34.83;;
59302;SDS011;45074;52.764;6.896;2023-06-22T05:22:31;37.17;;;33.17;;
59302;SDS011;45074;52.764;6.896;2023-06-22T05:24:57;36.97;;;32.17;;
59302;SDS011;45074;52.764;6.896;2023-06-22T05:27:23;36.15;;;31.65;;
59302;SDS011;45074;52.764;6.896;2023-06-22T05:29:49;35.90;;;31.27;;
59302;SDS011;45074;52.764;6.896;2023-06-22T05:32:15;33.72;;;30.08;;
59302;SDS011;45074;52.764;6.896;2023-06-22T05:34:41;34.20;;;30.55;;
59302;SDS011;45074;52.764;6.896;2023-06-22T05:37:07;33.50;;;29.52;;
59302;SDS011;45074;52.764;6.896;2023-06-22T05:39:34;33.50;;;29.25;;
59302;SDS011;45074;52.764;6.896;2023-06-22T05:42:03;33.10;;;28.10;;
59302;SDS011;45074;52.764;6.896;2023-06-22T05:44:30;30.98;;;27.48;;
59302;SDS011;45074;52.764;6.896;2023-06-22T05:46:56;29.85;;;26.42;;
59302;SDS011;45074;52.764;6.896;2023-06-22T05:49:22;29.60;;;26.40;;
59302;SDS011;45074;52.764;6.896;2023-06-22T05:51:49;31.00;;;26.27;;
59302;SDS011;45074;52.764;6.896;2023-06-22T05:54:15;28.75;;;25.65;;
59302;SDS011;45074;52.764;6.896;2023-06-22T05:56:43;30.25;;;26.48;;
59302;SDS011;45074;52.764;6.896;2023-06-22T05:59:09;28.13;;;24.48;;
59302;SDS011;45074;52.764;6.896;2023-06-22T06:01:35;27.88;;;24.88;;
59302;SDS011;45074;52.764;6.896;2023-06-22T06:04:02;30.10;;;24.92;;
59302;SDS011;45074;52.764;6.896;2023-06-22T06:06:33;25.85;;;23.08;;
59302;SDS011;45074;52.764;6.896;2023-06-22T06:09:00;25.50;;;22.25;;
59302;SDS011;45074;52.764;6.896;2023-06-22T06:11:26;25.70;;;22.60;;
59302;SDS011;45074;52.764;6.896;2023-06-22T06:13:52;25.13;;;22.42;;
59302;SDS011;45074;52.764;6.896;2023-06-22T06:16:18;24.70;;;21.15;;
59302;SDS011;45074;52.764;6.896;2023-06-22T06:18:44;24.58;;;21.27;;
59302;SDS011;45074;52.764;6.896;2023-06-22T06:21:10;23.30;;;20.77;;
59302;SDS011;45074;52.764;6.896;2023-06-22T06:23:36;22.25;;;19.77;;
59302;SDS011;45074;52.764;6.896;2023-06-22T06:26:02;22.00;;;19.13;;
59302;SDS011;45074;52.764;6.896;2023-06-22T06:28:31;24.17;;;20.40;;
59302;SDS011;45074;52.764;6.896;2023-06-22T06:30:57;19.02;;;17.02;;
59302;SDS011;45074;52.764;6.896;2023-06-22T06:33:23;19.75;;;17.65;;
59302;SDS011;45074;52.764;6.896;2023-06-22T06:35:49;20.33;;;17.75;;
59302;SDS011;45074;52.764;6.896;2023-06-22T06:38:16;18.98;;;16.88;;
59302;SDS011;45074;52.764;6.896;2023-06-22T06:40:42;19.88;;;17.55;;
59302;SDS011;45074;52.764;6.896;2023-06-22T06:43:09;22.15;;;18.52;;
59302;SDS011;45074;52.764;6.896;2023-06-22T06:45:35;20.08;;;17.67;;
59302;SDS011;45074;52.764;6.896;2023-06-22T06:48:01;20.75;;;16.95;;
59302;SDS011;45074;52.764;6.896;2023-06-22T06:50:27;21.23;;;17.70;;
59302;SDS011;45074;52.764;6.896;2023-06-22T06:52:54;18.88;;;16.88;;
59302;SDS011;45074;52.764;6.896;2023-06-22T06:55:21;18.42;;;15.82;;
59302;SDS011;45074;52.764;6.896;2023-06-22T06:57:50;18.98;;;16.30;;
59302;SDS011;45074;52.764;6.896;2023-06-22T07:00:17;19.27;;;16.33;;
59302;SDS011;45074;52.764;6.896;2023-06-22T07:02:44;20.23;;;17.48;;
59302;SDS011;45074;52.764;6.896;2023-06-22T07:05:11;19.92;;;17.52;;
59302;SDS011;45074;52.764;6.896;2023-06-22T07:07:37;19.65;;;17.38;;
59302;SDS011;45074;52.764;6.896;2023-06-22T07:10:04;19.83;;;17.38;;
59302;SDS011;45074;52.764;6.896;2023-06-22T07:12:30;21.88;;;17.95;;
59302;SDS011;45074;52.764;6.896;2023-06-22T07:15:09;20.42;;;18.23;;
59302;SDS011;45074;52.764;6.896;2023-06-22T07:17:36;19.27;;;17.10;;
59302;SDS011;45074;52.764;6.896;2023-06-22T07:20:04;20.20;;;15.98;;
59302;SDS011;45074;52.764;6.896;2023-06-22T07:22:39;16.92;;;14.55;;
59302;SDS011;45074;52.764;6.896;2023-06-22T07:25:07;18.20;;;15.77;;
59302;SDS011;45074;52.764;6.896;2023-06-22T07:27:39;16.85;;;14.73;;
59302;SDS011;45074;52.764;6.896;2023-06-22T07:30:10;16.52;;;13.98;;
59302;SDS011;45074;52.764;6.896;2023-06-22T07:32:36;15.13;;;13.43;;
59302;SDS011;45074;52.764;6.896;2023-06-22T07:35:02;18.50;;;13.63;;
59302;SDS011;45074;52.764;6.896;2023-06-22T07:37:29;15.80;;;13.60;;
59302;SDS011;45074;52.764;6.896;2023-06-22T07:39:55;16.83;;;13.45;;
59302;SDS011;45074;52.764;6.896;2023-06-22T07:42:26;16.02;;;12.70;;
59302;SDS011;45074;52.764;6.896;2023-06-22T07:44:53;13.82;;;12.02;;
59302;SDS011;45074;52.764;6.896;2023-06-22T07:47:19;14.82;;;12.38;;
59302;SDS011;45074;52.764;6.896;2023-06-22T07:49:50;15.77;;;12.07;;
59302;SDS011;45074;52.764;6.896;2023-06-22T07:52:16;13.70;;;10.75;;
59302;SDS011;45074;52.764;6.896;2023-06-22T07:54:42;12.75;;;11.07;;
59302;SDS011;45074;52.764;6.896;2023-06-22T07:57:09;13.38;;;10.32;;
59302;SDS011;45074;52.764;6.896;2023-06-22T07:59:35;13.40;;;10.88;;
59302;SDS011;45074;52.764;6.896;2023-06-22T08:02:01;12.85;;;11.00;;
59302;SDS011;45074;52.764;6.896;2023-06-22T08:04:28;13.88;;;10.38;;
59302;SDS011;45074;52.764;6.896;2023-06-22T08:06:55;11.63;;;9.52;;
59302;SDS011;45074;52.764;6.896;2023-06-22T08:09:22;13.63;;;11.25;;
59302;SDS011;45074;52.764;6.896;2023-06-22T08:11:48;12.30;;;10.00;;
59302;SDS011;45074;52.764;6.896;2023-06-22T08:14:14;12.60;;;9.80;;
59302;SDS011;45074;52.764;6.896;2023-06-22T08:16:41;12.20;;;10.68;;
59302;SDS011;45074;52.764;6.896;2023-06-22T08:19:07;12.82;;;10.48;;
59302;SDS011;45074;52.764;6.896;2023-06-22T08:21:33;13.05;;;10.60;;
59302;SDS011;45074;52.764;6.896;2023-06-22T08:23:59;12.30;;;10.45;;
59302;SDS011;45074;52.764;6.896;2023-06-22T08:26:25;13.10;;;9.77;;
59302;SDS011;45074;52.764;6.896;2023-06-22T08:28:51;12.20;;;9.90;;
59302;SDS011;45074;52.764;6.896;2023-06-22T08:31:17;12.30;;;10.55;;
59302;SDS011;45074;52.764;6.896;2023-06-22T08:33:43;12.82;;;10.32;;
59302;SDS011;45074;52.764;6.896;2023-06-22T08:36:11;13.30;;;10.93;;
59302;SDS011;45074;52.764;6.896;2023-06-22T08:38:38;12.75;;;10.93;;
59302;SDS011;45074;52.764;6.896;2023-06-22T08:41:04;13.05;;;11.45;;
59302;SDS011;45074;52.764;6.896;2023-06-22T08:43:30;12.77;;;10.02;;
59302;SDS011;45074;52.764;6.896;2023-06-22T08:45:56;11.77;;;9.98;;
59302;SDS011;45074;52.764;6.896;2023-06-22T08:48:22;12.25;;;9.07;;
59302;SDS011;45074;52.764;6.896;2023-06-22T08:50:48;12.02;;;9.43;;
59302;SDS011;45074;52.764;6.896;2023-06-22T08:53:14;13.63;;;9.77;;
59302;SDS011;45074;52.764;6.896;2023-06-22T08:55:40;12.32;;;9.55;;
59302;SDS011;45074;52.764;6.896;2023-06-22T08:58:06;10.20;;;8.50;;
59302;SDS011;45074;52.764;6.896;2023-06-22T09:00:32;12.20;;;9.70;;
59302;SDS011;45074;52.764;6.896;2023-06-22T09:03:00;11.25;;;9.60;;
59302;SDS011;45074;52.764;6.896;2023-06-22T09:05:26;11.20;;;8.88;;
59302;SDS011;45074;52.764;6.896;2023-06-22T09:07:52;11.13;;;8.20;;
59302;SDS011;45074;52.764;6.896;2023-06-22T09:10:21;11.07;;;9.10;;
59302;SDS011;45074;52.764;6.896;2023-06-22T09:12:47;12.98;;;8.30;;
59302;SDS011;45074;52.764;6.896;2023-06-22T09:15:13;12.10;;;8.77;;
59302;SDS011;45074;52.764;6.896;2023-06-22T09:17:40;12.20;;;9.27;;
59302;SDS011;45074;52.764;6.896;2023-06-22T09:20:06;12.82;;;9.40;;
59302;SDS011;45074;52.764;6.896;2023-06-22T09:22:35;12.55;;;8.90;;
59302;SDS011;45074;52.764;6.896;2023-06-22T09:25:01;8.70;;;6.90;;
59302;SDS011;45074;52.764;6.896;2023-06-22T09:27:28;11.55;;;9.90;;
59302;SDS011;45074;52.764;6.896;2023-06-22T09:29:54;11.05;;;8.15;;
59302;SDS011;45074;52.764;6.896;2023-06-22T09:32:20;11.00;;;9.02;;
59302;SDS011;45074;52.764;6.896;2023-06-22T09:34:46;11.98;;;8.90;;
59302;SDS011;45074;52.764;6.896;2023-06-22T09:37:12;10.15;;;7.80;;
59302;SDS011;45074;52.764;6.896;2023-06-22T09:39:38;10.05;;;8.40;;
59302;SDS011;45074;52.764;6.896;2023-06-22T09:42:05;12.00;;;8.98;;
59302;SDS011;45074;52.764;6.896;2023-06-22T09:44:31;11.95;;;8.63;;
59302;SDS011;45074;52.764;6.896;2023-06-22T09:46:57;10.77;;;8.40;;
59302;SDS011;45074;52.764;6.896;2023-06-22T09:49:23;11.93;;;8.93;;
59302;SDS011;45074;52.764;6.896;2023-06-22T09:51:49;10.18;;;7.78;;
59302;SDS011;45074;52.764;6.896;2023-06-22T09:54:16;11.77;;;8.45;;
59302;SDS011;45074;52.764;6.896;2023-06-22T09:56:42;12.98;;;8.63;;
59302;SDS011;45074;52.764;6.896;2023-06-22T09:59:08;9.50;;;7.97;;
59302;SDS011;45074;52.764;6.896;2023-06-22T10:01:34;10.50;;;8.50;;
59302;SDS011;45074;52.764;6.896;2023-06-22T10:04:01;11.45;;;8.90;;
59302;SDS011;45074;52.764;6.896;2023-06-22T10:06:27;11.27;;;7.97;;
59302;SDS011;45074;52.764;6.896;2023-06-22T10:08:53;9.35;;;7.43;;
59302;SDS011;45074;52.764;6.896;2023-06-22T10:11:19;10.32;;;7.63;;
59302;SDS011;45074;52.764;6.896;2023-06-22T10:13:52;10.02;;;8.50;;
59302;SDS011;45074;52.764;6.896;2023-06-22T10:16:18;10.57;;;7.85;;
59302;SDS011;45074;52.764;6.896;2023-06-22T10:18:44;10.77;;;7.80;;
59302;SDS011;45074;52.764;6.896;2023-06-22T10:21:10;12.15;;;8.65;;
59302;SDS011;45074;52.764;6.896;2023-06-22T10:23:36;10.85;;;8.10;;
59302;SDS011;45074;52.764;6.896;2023-06-22T10:26:02;11.07;;;8.85;;
59302;SDS011;45074;52.764;6.896;2023-06-22T10:28:28;10.48;;;8.05;;
59302;SDS011;45074;52.764;6.896;2023-06-22T10:30:54;9.60;;;7.60;;
59302;SDS011;45074;52.764;6.896;2023-06-22T10:33:20;12.38;;;7.43;;
59302;SDS011;45074;52.764;6.896;2023-06-22T10:35:46;10.30;;;7.20;;
59302;SDS011;45074;52.764;6.896;2023-06-22T10:38:12;8.60;;;6.35;;
59302;SDS011;45074;52.764;6.896;2023-06-22T10:40:38;9.05;;;6.60;;
59302;SDS011;45074;52.764;6.896;2023-06-22T10:43:04;9.20;;;6.70;;
59302;SDS011;45074;52.764;6.896;2023-06-22T10:45:30;9.88;;;7.82;;
59302;SDS011;45074;52.764;6.896;2023-06-22T10:47:56;9.23;;;6.75;;
59302;SDS011;45074;52.764;6.896;2023-06-22T10:50:23;10.68;;;8.00;;
59302;SDS011;45074;52.764;6.896;2023-06-22T10:52:49;9.27;;;6.00;;
59302;SDS011;45074;52.764;6.896;2023-06-22T10:55:15;9.63;;;7.07;;
59302;SDS011;45074;52.764;6.896;2023-06-22T10:57:41;11.77;;;7.22;;
59302;SDS011;45074;52.764;6.896;2023-06-22T11:00:09;10.50;;;6.75;;
59302;SDS011;45074;52.764;6.896;2023-06-22T11:02:36;8.15;;;6.18;;
59302;SDS011;45074;52.764;6.896;2023-06-22T11:05:02;10.40;;;6.95;;
59302;SDS011;45074;52.764;6.896;2023-06-22T11:07:29;9.32;;;6.07;;
59302;SDS011;45074;52.764;6.896;2023-06-22T11:09:55;10.13;;;6.43;;
59302;SDS011;45074;52.764;6.896;2023-06-22T11:12:21;8.90;;;5.90;;
59302;SDS011;45074;52.764;6.896;2023-06-22T11:14:47;10.57;;;7.05;;
59302;SDS011;45074;52.764;6.896;2023-06-22T11:17:16;8.63;;;6.15;;
59302;SDS011;45074;52.764;6.896;2023-06-22T11:19:43;11.48;;;6.30;;
59302;SDS011;45074;52.764;6.896;2023-06-22T11:22:09;9.30;;;6.53;;
59302;SDS011;45074;52.764;6.896;2023-06-22T11:24:35;9.85;;;6.20;;
59302;SDS011;45074;52.764;6.896;2023-06-22T11:27:02;7.93;;;5.80;;
59302;SDS011;45074;52.764;6.896;2023-06-22T11:29:28;8.48;;;5.78;;
59302;SDS011;45074;52.764;6.896;2023-06-22T11:31:54;7.60;;;4.72;;
59302;SDS011;45074;52.764;6.896;2023-06-22T11:34:20;9.75;;;5.90;;
59302;SDS011;45074;52.764;6.896;2023-06-22T11:36:46;7.05;;;4.65;;
59302;SDS011;45074;52.764;6.896;2023-06-22T11:39:13;8.30;;;4.97;;
59302;SDS011;45074;52.764;6.896;2023-06-22T11:41:40;8.00;;;5.25;;
59302;SDS011;45074;52.764;6.896;2023-06-22T11:44:07;7.20;;;4.85;;
59302;SDS011;45074;52.764;6.896;2023-06-22T11:46:33;10.05;;;6.93;;
59302;SDS011;45074;52.764;6.896;2023-06-22T11:48:59;8.70;;;6.53;;
59302;SDS011;45074;52.764;6.896;2023-06-22T11:51:26;8.55;;;6.20;;
59302;SDS011;45074;52.764;6.896;2023-06-22T11:53:53;8.43;;;5.60;;
59302;SDS011;45074;52.764;6.896;2023-06-22T11:56:19;6.53;;;4.57;;
59302;SDS011;45074;52.764;6.896;2023-06-22T11:58:45;7.85;;;4.80;;
59302;SDS011;45074;52.764;6.896;2023-06-22T12:01:11;7.75;;;5.07;;
59302;SDS011;45074;52.764;6.896;2023-06-22T12:03:40;7.38;;;5.38;;
59302;SDS011;45074;52.764;6.896;2023-06-22T12:06:06;7.18;;;4.43;;
59302;SDS011;45074;52.764;6.896;2023-06-22T12:08:32;7.72;;;4.88;;
59302;SDS011;45074;52.764;6.896;2023-06-22T12:10:58;7.40;;;4.63;;
59302;SDS011;45074;52.764;6.896;2023-06-22T12:13:24;7.38;;;4.68;;
59302;SDS011;45074;52.764;6.896;2023-06-22T12:15:50;7.05;;;5.13;;
59302;SDS011;45074;52.764;6.896;2023-06-22T12:18:17;8.10;;;5.70;;
59302;SDS011;45074;52.764;6.896;2023-06-22T12:20:45;8.43;;;5.20;;
59302;SDS011;45074;52.764;6.896;2023-06-22T12:23:12;8.73;;;5.68;;
59302;SDS011;45074;52.764;6.896;2023-06-22T12:25:38;8.75;;;5.03;;
59302;SDS011;45074;52.764;6.896;2023-06-22T12:28:04;8.95;;;5.15;;
59302;SDS011;45074;52.764;6.896;2023-06-22T12:30:32;8.05;;;5.00;;
59302;SDS011;45074;52.764;6.896;2023-06-22T12:32:58;8.32;;;5.18;;
59302;SDS011;45074;52.764;6.896;2023-06-22T12:35:24;7.90;;;5.20;;
59302;SDS011;45074;52.764;6.896;2023-06-22T12:37:50;7.28;;;5.00;;
59302;SDS011;45074;52.764;6.896;2023-06-22T12:40:16;7.88;;;4.80;;
59302;SDS011;45074;52.764;6.896;2023-06-22T12:42:44;7.53;;;5.13;;
59302;SDS011;45074;52.764;6.896;2023-06-22T12:45:10;8.95;;;5.03;;
59302;SDS011;45074;52.764;6.896;2023-06-22T12:47:36;9.02;;;5.68;;
59302;SDS011;45074;52.764;6.896;2023-06-22T12:50:02;7.40;;;5.50;;
59302;SDS011;45074;52.764;6.896;2023-06-22T12:52:29;9.15;;;4.97;;
59302;SDS011;45074;52.764;6.896;2023-06-22T12:54:57;8.23;;;4.95;;
59302;SDS011;45074;52.764;6.896;2023-06-22T12:57:23;7.50;;;5.07;;
59302;SDS011;45074;52.764;6.896;2023-06-22T12:59:50;7.43;;;4.53;;
59302;SDS011;45074;52.764;6.896;2023-06-22T13:02:16;6.88;;;4.90;;
59302;SDS011;45074;52.764;6.896;2023-06-22T13:04:42;7.50;;;5.40;;
59302;SDS011;45074;52.764;6.896;2023-06-22T13:07:08;7.22;;;5.13;;
59302;SDS011;45074;52.764;6.896;2023-06-22T13:09:35;7.55;;;5.30;;
59302;SDS011;45074;52.764;6.896;2023-06-22T13:12:02;8.48;;;5.75;;
59302;SDS011;45074;52.764;6.896;2023-06-22T13:14:28;7.78;;;5.45;;
59302;SDS011;45074;52.764;6.896;2023-06-22T13:16:54;6.97;;;5.05;;
59302;SDS011;45074;52.764;6.896;2023-06-22T13:19:20;8.80;;;4.90;;
59302;SDS011;45074;52.764;6.896;2023-06-22T13:21:46;6.78;;;4.72;;
59302;SDS011;45074;52.764;6.896;2023-06-22T13:24:12;6.85;;;4.20;;
59302;SDS011;45074;52.764;6.896;2023-06-22T13:26:39;9.50;;;5.32;;
59302;SDS011;45074;52.764;6.896;2023-06-22T13:29:05;7.70;;;4.85;;
59302;SDS011;45074;52.764;6.896;2023-06-22T13:31:31;7.65;;;4.93;;
59302;SDS011;45074;52.764;6.896;2023-06-22T13:33:57;7.30;;;4.50;;
59302;SDS011;45074;52.764;6.896;2023-06-22T13:36:23;7.55;;;4.40;;
59302;SDS011;45074;52.764;6.896;2023-06-22T13:38:49;6.82;;;4.32;;
59302;SDS011;45074;52.764;6.896;2023-06-22T13:41:15;9.18;;;5.57;;
59302;SDS011;45074;52.764;6.896;2023-06-22T13:43:41;7.65;;;5.22;;
59302;SDS011;45074;52.764;6.896;2023-06-22T13:46:07;8.90;;;5.05;;
59302;SDS011;45074;52.764;6.896;2023-06-22T13:48:33;9.15;;;4.95;;
59302;SDS011;45074;52.764;6.896;2023-06-22T13:50:59;7.20;;;5.07;;
59302;SDS011;45074;52.764;6.896;2023-06-22T13:53:26;8.85;;;4.93;;
59302;SDS011;45074;52.764;6.896;2023-06-22T13:55:52;6.93;;;4.60;;
59302;SDS011;45074;52.764;6.896;2023-06-22T13:58:18;7.97;;;4.63;;
59302;SDS011;45074;52.764;6.896;2023-06-22T14:00:45;6.32;;;4.60;;
59302;SDS011;45074;52.764;6.896;2023-06-22T14:03:11;7.30;;;4.88;;
59302;SDS011;45074;52.764;6.896;2023-06-22T14:05:40;8.77;;;5.00;;
59302;SDS011;45074;52.764;6.896;2023-06-22T14:08:07;6.95;;;4.88;;
59302;SDS011;45074;52.764;6.896;2023-06-22T14:10:33;8.13;;;5.40;;
59302;SDS011;45074;52.764;6.896;2023-06-22T14:12:59;7.43;;;4.75;;
59302;SDS011;45074;52.764;6.896;2023-06-22T14:15:25;7.07;;;4.68;;
59302;SDS011;45074;52.764;6.896;2023-06-22T14:17:51;7.25;;;4.63;;
59302;SDS011;45074;52.764;6.896;2023-06-22T14:20:18;7.45;;;4.53;;
59302;SDS011;45074;52.764;6.896;2023-06-22T14:22:44;7.55;;;5.07;;
59302;SDS011;45074;52.764;6.896;2023-06-22T14:25:10;7.20;;;5.38;;
59302;SDS011;45074;52.764;6.896;2023-06-22T14:27:36;8.00;;;4.90;;
59302;SDS011;45074;52.764;6.896;2023-06-22T14:30:02;8.27;;;5.03;;
59302;SDS011;45074;52.764;6.896;2023-06-22T14:32:28;9.15;;;5.40;;
59302;SDS011;45074;52.764;6.896;2023-06-22T14:34:57;9.88;;;6.78;;
59302;SDS011;45074;52.764;6.896;2023-06-22T14:37:23;8.52;;;6.50;;